Time;durP1;ratioP1;P1;durP2;ratioP2;P2;SDS_P1;SDS_P2;PMS_P1;PMS_P2;Temp;Humidity;BMP_temperature;BMP_pressure;BME280_temperature;BME280_humidity;BME280_pressure;Samples;Min_cycle;Max_cycle;Signal;HPM_P1;HPM_P2
2022/08/18 00:01:54;;;;;;;2.10;2.00;;;18.40;99.90;;;;;;5030813;28;20478;-78
2022/08/18 00:04:21;;;;;;;0.50;0.40;;;18.40;99.90;;;;;;5030935;28;20438;-80
2022/08/18 00:06:48;;;;;;;0.70;0.70;;;18.40;99.90;;;;;;5031187;28;20453;-78
2022/08/18 00:09:15;;;;;;;0.50;0.37;;;18.50;99.90;;;;;;5030727;28;20529;-78
2022/08/18 00:11:44;;;;;;;4.63;3.07;;;18.50;99.90;;;;;;5031030;28;20508;-78
2022/08/18 00:14:13;;;;;;;0.50;0.40;;;18.50;99.90;;;;;;5030620;28;20477;-80
2022/08/18 00:16:42;;;;;;;1.17;1.17;;;18.60;99.90;;;;;;5031046;28;20524;-74
2022/08/18 00:19:09;;;;;;;2.47;2.27;;;18.60;99.90;;;;;;5030831;28;20460;-78
2022/08/18 00:21:36;;;;;;;0.70;0.70;;;18.60;99.90;;;;;;5030606;28;20457;-78
2022/08/18 00:24:04;;;;;;;0.50;0.30;;;18.70;99.90;;;;;;5030023;28;20973;-79
2022/08/18 00:26:31;;;;;;;0.50;0.43;;;18.70;99.90;;;;;;5030695;28;20440;-78
2022/08/18 00:28:57;;;;;;;0.50;0.40;;;18.60;99.90;;;;;;5031209;28;20525;-78
2022/08/18 00:31:24;;;;;;;0.50;0.37;;;18.60;99.90;;;;;;5030768;28;20470;-78
2022/08/18 00:33:52;;;;;;;0.50;0.30;;;18.60;99.90;;;;;;5030471;28;20553;-76
2022/08/18 00:36:19;;;;;;;0.50;0.40;;;18.50;99.90;;;;;;5030993;28;20791;-76
2022/08/18 00:38:46;;;;;;;1.17;1.17;;;18.50;99.90;;;;;;5032318;28;20446;-78
2022/08/18 00:41:13;;;;;;;0.77;0.77;;;18.50;99.90;;;;;;5033880;28;20446;-78
2022/08/18 00:43:44;;;;;;;2.00;1.33;;;18.50;99.90;;;;;;5034341;28;20818;-78
2022/08/18 00:46:16;;;;;;;2.83;2.73;;;18.50;99.90;;;;;;5033952;28;21035;-80
2022/08/18 00:48:43;;;;;;;0.70;0.67;;;18.50;99.90;;;;;;5034254;28;20450;-75
2022/08/18 00:51:15;;;;;;;3.87;2.00;;;18.60;99.90;;;;;;5034273;28;20468;-79
2022/08/18 00:53:48;;;;;;;4.20;4.00;;;18.50;99.90;;;;;;5033728;28;20959;-78
2022/08/18 00:56:19;;;;;;;2.10;1.77;;;18.50;99.90;;;;;;5033575;28;20914;-78
2022/08/18 00:58:50;;;;;;;0.50;0.40;;;18.50;99.90;;;;;;5034501;28;20422;-79
2022/08/18 01:01:22;;;;;;;1.57;1.47;;;18.50;99.90;;;;;;5033681;28;20466;-78
2022/08/18 01:03:52;;;;;;;1.07;1.07;;;18.50;99.90;;;;;;5034177;28;20456;-78
2022/08/18 01:06:31;;;;;;;2.00;1.90;;;18.50;99.90;;;;;;5033901;28;20477;-76
2022/08/18 01:08:58;;;;;;;2.30;2.20;;;18.50;99.90;;;;;;5034103;28;20495;-78
2022/08/18 01:11:25;;;;;;;2.20;2.10;;;18.50;99.90;;;;;;5033715;28;20456;-79
2022/08/18 01:13:53;;;;;;;9.00;3.53;;;18.50;99.90;;;;;;5033499;28;20488;-75
2022/08/18 01:21:59;;;;;;;0.50;0.50;;;18.40;99.90;;;;;;5033457;28;20483;-78
2022/08/18 01:27:18;;;;;;;0.50;0.40;;;18.40;99.90;;;;;;5033538;28;20456;-79
2022/08/18 01:29:45;;;;;;;0.50;0.40;;;18.30;99.90;;;;;;5033670;28;20438;-74
2022/08/18 01:32:15;;;;;;;5.60;2.20;;;18.30;99.90;;;;;;5032974;28;21166;-76
2022/08/18 01:34:43;;;;;;;0.97;0.70;;;18.30;99.90;;;;;;5033109;28;20474;-78
2022/08/18 01:37:10;;;;;;;0.93;0.93;;;18.30;99.90;;;;;;5033349;28;20434;-79
2022/08/18 01:39:38;;;;;;;0.50;0.40;;;18.30;99.90;;;;;;5033201;28;20438;-78
2022/08/18 01:42:05;;;;;;;0.60;0.50;;;18.30;99.90;;;;;;5033242;28;20817;-79
2022/08/18 01:44:32;;;;;;;1.00;0.83;;;18.30;99.90;;;;;;5033207;28;20784;-78
2022/08/18 01:46:59;;;;;;;1.50;1.40;;;18.20;99.90;;;;;;5033204;28;20438;-78
2022/08/18 01:49:27;;;;;;;0.50;0.40;;;18.20;99.90;;;;;;5031993;28;20430;-78
2022/08/18 01:51:54;;;;;;;0.60;0.40;;;18.10;99.90;;;;;;5033830;28;20811;-78
2022/08/18 01:54:21;;;;;;;3.80;3.60;;;18.10;99.90;;;;;;5032972;28;20894;-78
2022/08/18 01:56:52;;;;;;;5.50;4.03;;;18.10;99.90;;;;;;5033181;28;20448;-78
2022/08/18 01:59:19;;;;;;;11.30;5.40;;;18.20;99.90;;;;;;5033348;28;20505;-77
2022/08/18 02:01:47;;;;;;;3.73;2.93;;;18.20;99.90;;;;;;5032695;28;20573;-78
2022/08/18 02:04:16;;;;;;;5.60;3.60;;;18.20;99.90;;;;;;5032718;28;20477;-78
2022/08/18 02:06:43;;;;;;;5.03;4.53;;;18.20;99.90;;;;;;5032741;28;20471;-77
2022/08/18 02:09:10;;;;;;;0.50;0.40;;;18.20;99.90;;;;;;5032623;28;20541;-78
2022/08/18 02:11:37;;;;;;;4.80;2.30;;;18.20;99.90;;;;;;5032815;28;20486;-79
2022/08/18 02:14:05;;;;;;;10.63;8.03;;;18.20;99.90;;;;;;5032654;28;20426;-78
2022/08/18 02:16:32;;;;;;;3.27;3.07;;;18.20;99.90;;;;;;5032618;28;20434;-78
2022/08/18 02:18:59;;;;;;;14.10;12.70;;;18.10;99.90;;;;;;5032165;28;20434;-79
2022/08/18 02:21:26;;;;;;;2.00;1.33;;;18.10;99.90;;;;;;5032349;28;20457;-78
2022/08/18 02:23:53;;;;;;;7.73;5.20;;;18.10;99.90;;;;;;5031601;28;20461;-76
2022/08/18 02:26:20;;;;;;;6.13;2.10;;;18.00;99.90;;;;;;5032624;28;20438;-78
2022/08/18 02:28:47;;;;;;;0.50;0.40;;;18.00;99.90;;;;;;5032577;28;20520;-78
2022/08/18 02:31:17;;;;;;;0.60;0.60;;;18.00;99.90;;;;;;5032223;28;20458;-78
2022/08/18 02:33:45;;;;;;;2.63;1.03;;;18.00;99.90;;;;;;5032057;28;20430;-78
2022/08/18 02:36:13;;;;;;;3.70;3.17;;;18.00;99.90;;;;;;5031942;28;20462;-80
2022/08/18 02:38:40;;;;;;;5.63;3.27;;;18.00;99.90;;;;;;5031884;28;20442;-78
2022/08/18 02:41:09;;;;;;;2.50;2.40;;;18.00;99.90;;;;;;5032288;28;20464;-78
2022/08/18 02:43:37;;;;;;;9.23;6.00;;;18.00;99.90;;;;;;5032050;28;20546;-74
2022/08/18 02:46:06;;;;;;;1.90;1.77;;;18.00;99.90;;;;;;5031660;28;20492;-77
2022/08/18 02:48:34;;;;;;;0.97;0.97;;;18.00;99.90;;;;;;5031795;28;20444;-78
2022/08/18 02:51:03;;;;;;;0.50;0.37;;;18.00;99.90;;;;;;5031772;28;20461;-78
2022/08/18 02:53:29;;;;;;;0.60;0.60;;;18.10;99.90;;;;;;5032084;28;20422;-79
2022/08/18 02:56:11;;;;;;;0.50;0.50;;;18.10;99.90;;;;;;5031855;28;20436;-79
2022/08/18 02:58:38;;;;;;;0.50;0.40;;;18.20;99.90;;;;;;5031599;28;20935;-79
2022/08/18 03:01:05;;;;;;;2.30;1.70;;;18.30;99.90;;;;;;5031285;28;20484;-78
2022/08/18 03:03:31;;;;;;;2.67;2.20;;;18.40;99.90;;;;;;5031661;28;20472;-78
2022/08/18 03:06:00;;;;;;;1.97;1.80;;;18.40;99.90;;;;;;5031657;28;20438;-79
2022/08/18 03:08:27;;;;;;;12.97;5.97;;;18.40;99.90;;;;;;5031508;28;20529;-78
2022/08/18 03:10:54;;;;;;;1.13;1.03;;;18.40;99.90;;;;;;5031714;28;20449;-78
2022/08/18 03:13:20;;;;;;;0.60;0.50;;;18.40;99.90;;;;;;5032227;28;20454;-78
2022/08/18 03:15:47;;;;;;;25.47;12.00;;;18.40;99.90;;;;;;5031496;28;20433;-79
2022/08/18 03:18:15;;;;;;;2.80;2.60;;;18.50;99.90;;;;;;5031528;28;20452;-77
2022/08/18 03:20:44;;;;;;;5.33;2.50;;;18.50;99.90;;;;;;5031637;28;20441;-78
2022/08/18 03:23:12;;;;;;;1.03;1.03;;;18.60;99.90;;;;;;5031990;28;20438;-78
2022/08/18 03:25:44;;;;;;;2.10;2.00;;;18.60;99.90;;;;;;5031447;28;20806;-77
2022/08/18 03:28:11;;;;;;;3.47;3.23;;;18.60;99.90;;;;;;5032066;28;20437;-78
2022/08/18 03:30:37;;;;;;;1.00;0.83;;;18.60;99.90;;;;;;5031672;28;20515;-78
2022/08/18 03:33:04;;;;;;;1.23;1.07;;;18.60;99.90;;;;;;5031693;28;20521;-79
2022/08/18 03:35:33;;;;;;;1.77;1.73;;;18.60;99.90;;;;;;5031033;28;20954;-78
2022/08/18 03:38:00;;;;;;;0.60;0.40;;;18.60;99.90;;;;;;5031618;28;20434;-78
2022/08/18 03:40:28;;;;;;;0.93;0.93;;;18.60;99.90;;;;;;5031456;28;20437;-78
2022/08/18 03:42:55;;;;;;;9.70;7.13;;;18.60;99.90;;;;;;5031061;28;20464;-77
2022/08/18 03:45:23;;;;;;;1.37;1.10;;;18.70;99.90;;;;;;5030603;28;20469;-77
2022/08/18 03:47:51;;;;;;;17.80;9.93;;;18.70;99.90;;;;;;5031360;28;20434;-77
2022/08/18 03:50:18;;;;;;;4.63;4.47;;;18.70;99.90;;;;;;5031578;28;20946;-79
2022/08/18 03:52:47;;;;;;;4.37;1.90;;;18.70;99.90;;;;;;5031192;28;20458;-80
2022/08/18 03:55:14;;;;;;;9.13;7.43;;;18.70;99.90;;;;;;5030938;28;20525;-78
2022/08/18 03:57:43;;;;;;;0.50;0.30;;;18.70;99.90;;;;;;5031432;28;20434;-77
2022/08/18 04:00:11;;;;;;;8.63;6.60;;;18.70;99.90;;;;;;5031552;28;20477;-78
2022/08/18 04:02:38;;;;;;;0.50;0.50;;;18.70;99.90;;;;;;5030836;28;20473;-77
2022/08/18 04:05:06;;;;;;;4.07;3.87;;;18.80;99.90;;;;;;5030739;28;20490;-77
2022/08/18 04:07:33;;;;;;;0.50;0.40;;;18.80;99.90;;;;;;5031393;28;20496;-78
2022/08/18 04:10:00;;;;;;;0.50;0.40;;;18.70;99.90;;;;;;5030971;28;20533;-79
2022/08/18 04:12:27;;;;;;;0.50;0.40;;;18.70;99.90;;;;;;5030838;28;20561;-77
2022/08/18 04:14:55;;;;;;;3.20;3.10;;;18.80;99.90;;;;;;5034850;28;20497;-78
2022/08/18 04:17:23;;;;;;;3.77;3.50;;;18.80;99.90;;;;;;5034826;28;20472;-78
2022/08/18 04:19:51;;;;;;;0.50;0.50;;;18.80;99.90;;;;;;5035426;28;20502;-78
2022/08/18 04:22:18;;;;;;;5.73;3.40;;;18.80;99.90;;;;;;5034580;28;20456;-78
2022/08/18 04:24:46;;;;;;;0.83;0.83;;;18.70;99.90;;;;;;5034365;28;20468;-76
2022/08/18 04:27:12;;;;;;;7.23;4.40;;;18.70;99.90;;;;;;5035016;28;20441;-77
2022/08/18 04:29:39;;;;;;;20.60;7.23;;;18.70;99.90;;;;;;5074827;22;20483;-76
2022/08/18 04:32:07;;;;;;;0.53;0.50;;;18.60;99.90;;;;;;5065273;28;20433;-77
2022/08/18 04:34:34;;;;;;;5.90;4.00;;;18.60;99.90;;;;;;5054526;28;20431;-77
2022/08/18 04:37:02;;;;;;;2.70;2.60;;;18.50;99.90;;;;;;5054309;28;20424;-77
2022/08/18 04:39:29;;;;;;;0.50;0.30;;;18.40;99.90;;;;;;5054310;28;20518;-77
2022/08/18 04:41:58;;;;;;;1.97;1.13;;;18.40;99.90;;;;;;5054008;28;20432;-77
2022/08/18 04:44:24;;;;;;;0.60;0.60;;;18.30;99.90;;;;;;5053630;28;20475;-78
2022/08/18 04:46:53;;;;;;;0.50;0.40;;;18.30;99.90;;;;;;5054176;28;20439;-77
2022/08/18 04:49:24;;;;;;;0.60;0.40;;;18.20;99.90;;;;;;5053983;28;20956;-77
2022/08/18 04:54:35;;;;;;;0.50;0.33;;;18.10;99.90;;;;;;5053425;28;21271;-77
2022/08/18 04:57:11;;;;;;;0.50;0.40;;;18.00;99.90;;;;;;5053703;28;20976;-77
2022/08/18 04:59:40;;;;;;;0.73;0.73;;;18.10;99.90;;;;;;5053846;28;20795;-77
2022/08/18 05:02:08;;;;;;;1.17;1.17;;;18.20;99.90;;;;;;5053990;28;20433;-77
2022/08/18 05:04:37;;;;;;;0.50;0.40;;;18.20;99.90;;;;;;5053391;28;20475;-77
2022/08/18 05:07:05;;;;;;;0.50;0.40;;;18.40;99.90;;;;;;5053241;28;20445;-77
2022/08/18 05:09:32;;;;;;;1.03;1.03;;;18.50;99.90;;;;;;5053212;28;20493;-73
2022/08/18 05:11:59;;;;;;;0.60;0.30;;;18.60;99.90;;;;;;5053609;28;20453;-77
2022/08/18 05:14:26;;;;;;;0.50;0.30;;;18.70;99.90;;;;;;5052896;28;20433;-77
2022/08/18 05:16:53;;;;;;;8.70;8.10;;;18.80;99.90;;;;;;5053358;28;20449;-77
2022/08/18 05:19:22;;;;;;;0.50;0.30;;;18.80;99.90;;;;;;5053461;28;20881;-77
2022/08/18 05:21:52;;;;;;;0.50;0.40;;;18.90;99.90;;;;;;5053222;28;20459;-76
2022/08/18 05:24:20;;;;;;;0.90;0.90;;;18.90;99.90;;;;;;5052866;28;20469;-77
2022/08/18 05:26:47;;;;;;;0.50;0.30;;;19.00;99.90;;;;;;5053100;28;20516;-76
2022/08/18 05:29:14;;;;;;;0.50;0.30;;;19.10;99.90;;;;;;5053049;28;20896;-77
2022/08/18 05:31:42;;;;;;;0.50;0.30;;;19.10;99.90;;;;;;5053146;28;20452;-76
2022/08/18 05:34:09;;;;;;;20.27;18.77;;;19.10;99.90;;;;;;5052068;28;20860;-76
2022/08/18 05:36:57;;;;;;;0.50;0.30;;;19.20;99.90;;;;;;5053809;28;20445;-78
2022/08/18 05:39:28;;;;;;;2.67;2.47;;;19.20;99.90;;;;;;5053358;28;20465;-77
2022/08/18 05:42:02;;;;;;;3.40;3.20;;;19.20;99.90;;;;;;5052966;28;20448;-76
2022/08/18 05:44:32;;;;;;;0.50;0.40;;;19.20;99.90;;;;;;5051777;28;20588;-78
2022/08/18 05:47:03;;;;;;;1.57;1.47;;;19.20;99.90;;;;;;5052517;28;20449;-77
2022/08/18 05:49:31;;;;;;;0.60;0.33;;;19.20;99.90;;;;;;5052610;28;20830;-77
2022/08/18 05:52:01;;;;;;;6.93;3.37;;;19.20;99.90;;;;;;5052426;28;20450;-77
2022/08/18 05:57:26;;;;;;;1.13;1.13;;;19.20;99.90;;;;;;5052559;28;20429;-77
2022/08/18 05:59:54;;;;;;;0.50;0.30;;;19.20;99.90;;;;;;5051999;28;20480;-76
2022/08/18 06:02:32;;;;;;;0.50;0.30;;;19.30;99.90;;;;;;5052467;28;20441;-76
2022/08/18 06:05:03;;;;;;;0.50;0.30;;;19.30;99.90;;;;;;5051907;28;20496;-77
2022/08/18 06:07:36;;;;;;;0.67;0.67;;;19.40;99.90;;;;;;5052431;28;20870;-77
2022/08/18 06:10:06;;;;;;;3.23;3.03;;;19.40;99.90;;;;;;5051989;28;20472;-77
2022/08/18 06:12:36;;;;;;;5.10;3.50;;;19.50;99.90;;;;;;5052514;28;20798;-76
2022/08/18 06:15:07;;;;;;;0.50;0.30;;;19.50;99.90;;;;;;5051947;28;20491;-77
2022/08/18 06:18:03;;;;;;;1.73;1.63;;;19.60;99.90;;;;;;5051856;28;20461;-77
2022/08/18 06:20:38;;;;;;;0.60;0.40;;;19.60;99.90;;;;;;5052075;28;20895;-77
2022/08/18 06:23:20;;;;;;;1.00;0.90;;;19.70;99.90;;;;;;5051906;28;20530;-76
2022/08/18 06:25:57;;;;;;;0.50;0.40;;;19.70;99.90;;;;;;5051316;28;20895;-77
2022/08/18 06:28:39;;;;;;;0.50;0.47;;;19.80;99.90;;;;;;5052846;28;20473;-76
2022/08/18 06:31:16;;;;;;;0.70;0.40;;;19.80;99.90;;;;;;5051829;28;20464;-77
2022/08/18 06:33:53;;;;;;;3.07;1.67;;;19.70;99.90;;;;;;5051254;28;20436;-76
2022/08/18 06:36:37;;;;;;;0.50;0.30;;;19.70;99.90;;;;;;5050806;28;20825;-78
2022/08/18 06:39:17;;;;;;;0.50;0.30;;;19.70;99.90;;;;;;5051544;28;20528;-76
2022/08/18 06:41:47;;;;;;;0.50;0.47;;;19.70;99.90;;;;;;5051668;28;20841;-76
2022/08/18 06:44:21;;;;;;;2.43;1.20;;;19.70;99.90;;;;;;5051164;28;20883;-77
2022/08/18 06:46:54;;;;;;;0.93;0.90;;;19.70;99.90;;;;;;5051632;28;20515;-77
2022/08/18 06:49:36;;;;;;;0.60;0.30;;;19.80;99.90;;;;;;5051457;28;20473;-77
2022/08/18 06:52:19;;;;;;;5.00;4.50;;;19.90;99.90;;;;;;5050966;28;20574;-77
2022/08/18 06:54:47;;;;;;;3.33;3.00;;;19.80;99.90;;;;;;5051385;28;20471;-77
2022/08/18 06:57:26;;;;;;;2.43;1.20;;;19.80;99.90;;;;;;5051323;28;20512;-77
2022/08/18 07:00:02;;;;;;;8.97;3.63;;;19.70;99.90;;;;;;5051358;28;20469;-77
2022/08/18 07:02:45;;;;;;;2.03;1.83;;;19.70;99.90;;;;;;5051275;28;20455;-76
2022/08/18 07:05:19;;;;;;;2.23;2.13;;;19.60;99.90;;;;;;5050480;28;20453;-77
2022/08/18 07:08:03;;;;;;;6.23;5.70;;;19.50;99.90;;;;;;5051033;28;20487;-76
2022/08/18 07:10:34;;;;;;;0.50;0.30;;;19.50;99.90;;;;;;5051153;28;20645;-76
2022/08/18 07:13:15;;;;;;;0.60;0.50;;;19.50;99.90;;;;;;5051537;28;20886;-76
2022/08/18 07:15:44;;;;;;;1.23;1.23;;;19.50;99.90;;;;;;5050961;28;20441;-75
2022/08/18 07:18:13;;;;;;;5.53;5.10;;;19.50;99.90;;;;;;5050614;28;20475;-77
2022/08/18 07:20:45;;;;;;;4.13;2.20;;;19.60;99.90;;;;;;5050902;28;20457;-76
2022/08/18 07:23:24;;;;;;;0.60;0.40;;;19.60;99.90;;;;;;5051368;28;20443;-77
2022/08/18 07:26:01;;;;;;;0.60;0.40;;;19.70;99.90;;;;;;5050922;28;20480;-77
2022/08/18 07:28:30;;;;;;;1.07;0.97;;;19.80;99.90;;;;;;5051110;28;20440;-77
2022/08/18 07:31:12;;;;;;;0.83;0.83;;;19.90;99.90;;;;;;5050985;28;20433;-76
2022/08/18 07:33:41;;;;;;;1.67;1.13;;;20.00;99.90;;;;;;5050831;28;20428;-73
2022/08/18 07:36:10;;;;;;;1.33;1.33;;;20.10;99.90;;;;;;5050829;28;20955;-75
2022/08/18 07:38:42;;;;;;;1.60;1.50;;;20.20;99.90;;;;;;5051214;28;20464;-77
2022/08/18 07:41:15;;;;;;;4.70;3.70;;;20.20;99.90;;;;;;5050970;28;20788;-77
2022/08/18 07:43:51;;;;;;;0.60;0.40;;;20.40;99.90;;;;;;5050920;28;20437;-77
2022/08/18 07:46:23;;;;;;;5.70;5.20;;;20.50;99.90;;;;;;5050801;28;20476;-77
2022/08/18 07:48:50;;;;;;;1.57;1.47;;;20.80;99.90;;;;;;5055224;28;20436;-77
2022/08/18 07:51:23;;;;;;;3.70;3.40;;;20.90;99.90;;;;;;5055130;28;20432;-77
2022/08/18 07:53:56;;;;;;;1.77;1.67;;;21.00;99.90;;;;;;5054371;28;20552;-76
2022/08/18 07:56:36;;;;;;;0.50;0.40;;;21.10;99.90;;;;;;5054466;28;20459;-77
2022/08/18 07:59:10;;;;;;;4.80;4.50;;;21.10;99.90;;;;;;5054492;28;20471;-77
2022/08/18 08:01:48;;;;;;;4.67;1.70;;;21.10;99.90;;;;;;5054807;28;20715;-75
2022/08/18 08:04:23;;;;;;;1.53;1.43;;;21.10;99.90;;;;;;5054341;28;20502;-75
2022/08/18 08:06:59;;;;;;;3.60;2.70;;;21.10;99.90;;;;;;5054266;28;20567;-77
2022/08/18 08:09:40;;;;;;;0.50;0.30;;;21.20;99.90;;;;;;5054377;28;20456;-77
2022/08/18 08:12:16;;;;;;;0.50;0.30;;;21.00;99.90;;;;;;5054654;28;20445;-76
2022/08/18 08:15:00;;;;;;;0.50;0.50;;;21.00;99.90;;;;;;5054400;28;20425;-76
2022/08/18 08:17:33;;;;;;;0.80;0.80;;;21.10;99.90;;;;;;5054747;28;20432;-77
2022/08/18 08:20:11;;;;;;;0.60;0.30;;;21.10;99.90;;;;;;5053887;28;20461;-77
2022/08/18 08:22:45;;;;;;;4.20;3.27;;;21.10;99.90;;;;;;5054274;28;20427;-75
2022/08/18 08:25:19;;;;;;;1.37;1.37;;;21.10;99.90;;;;;;5054322;28;20487;-77
2022/08/18 08:28:06;;;;;;;1.40;1.40;;;21.10;99.90;;;;;;5054160;28;20428;-75
2022/08/18 08:30:39;;;;;;;5.80;3.20;;;21.00;99.90;;;;;;5054047;28;20495;-73
2022/08/18 08:33:11;;;;;;;0.50;0.30;;;21.00;99.90;;;;;;5054076;28;20444;-77
2022/08/18 08:35:44;;;;;;;1.47;1.37;;;20.90;99.90;;;;;;5053992;28;20444;-77
2022/08/18 08:38:14;;;;;;;2.30;2.20;;;20.90;99.90;;;;;;5054089;28;20456;-77
2022/08/18 08:40:51;;;;;;;0.50;0.30;;;21.00;99.90;;;;;;5054198;28;20467;-77
2022/08/18 08:43:25;;;;;;;0.60;0.50;;;21.10;99.90;;;;;;5053721;28;20972;-78
2022/08/18 08:46:02;;;;;;;0.77;0.77;;;21.40;99.90;;;;;;5053632;28;20496;-75
2022/08/18 08:48:31;;;;;;;1.33;1.23;;;21.60;99.90;;;;;;5053520;28;20818;-77
2022/08/18 08:51:03;;;;;;;6.53;4.13;;;21.90;99.90;;;;;;5053793;28;20969;-76
2022/08/18 08:53:34;;;;;;;9.93;3.70;;;22.20;99.90;;;;;;5053612;28;20429;-77
2022/08/18 08:56:06;;;;;;;0.63;0.60;;;22.40;99.90;;;;;;5053333;28;20433;-77
2022/08/18 08:58:39;;;;;;;6.47;3.10;;;22.80;99.90;;;;;;5052359;28;20874;-76
2022/08/18 09:01:10;;;;;;;0.50;0.40;;;23.40;99.90;;;;;;5053759;28;20461;-77
2022/08/18 09:03:45;;;;;;;1.87;1.23;;;24.10;99.90;;;;;;5053700;28;20532;-77
2022/08/18 09:06:24;;;;;;;6.00;2.60;;;24.80;99.90;;;;;;5053551;28;20555;-77
2022/08/18 09:09:08;;;;;;;8.17;6.43;;;25.40;99.90;;;;;;5052849;28;21002;-76
2022/08/18 09:11:52;;;;;;;3.47;3.20;;;25.90;99.90;;;;;;5053539;28;20927;-77
2022/08/18 09:14:52;;;;;;;3.97;2.67;;;25.70;99.90;;;;;;5052725;28;20910;-77
2022/08/18 09:17:46;;;;;;;4.53;3.93;;;25.20;99.90;;;;;;5053436;28;20440;-77
2022/08/18 09:20:31;;;;;;;1.07;1.07;;;24.80;99.90;;;;;;5053291;28;20962;-75
2022/08/18 09:23:04;;;;;;;3.73;2.20;;;24.50;99.90;;;;;;5053346;28;20475;-77
2022/08/18 09:25:43;;;;;;;5.83;4.23;;;24.30;99.90;;;;;;5052634;28;20473;-77
2022/08/18 09:28:12;;;;;;;0.50;0.30;;;24.20;99.90;;;;;;5053187;28;20425;-77
2022/08/18 09:30:45;;;;;;;0.60;0.50;;;24.20;99.90;;;;;;5052467;28;20559;-77
2022/08/18 09:33:31;;;;;;;0.50;0.30;;;24.50;99.90;;;;;;5052797;28;20615;-77
2022/08/18 09:36:09;;;;;;;0.50;0.30;;;24.50;99.90;;;;;;5052789;28;20421;-78
2022/08/18 09:41:36;;;;;;;2.60;2.37;;;24.40;99.90;;;;;;5052702;28;20508;-77
2022/08/18 09:44:13;;;;;;;0.50;0.40;;;24.20;99.90;;;;;;5052400;28;20491;-76
2022/08/18 09:46:55;;;;;;;2.00;0.80;;;24.00;99.90;;;;;;5052654;28;20472;-77
2022/08/18 09:49:41;;;;;;;3.00;2.67;;;24.00;99.90;;;;;;5052957;28;20589;-76
2022/08/18 09:52:53;;;;;;;4.13;2.07;;;24.00;99.90;;;;;;5052594;28;20488;-76
2022/08/18 09:55:42;;;;;;;2.40;2.30;;;23.90;99.90;;;;;;5051770;28;20520;-78
2022/08/18 09:58:18;;;;;;;2.10;2.00;;;24.00;99.90;;;;;;5052314;28;20541;-78
2022/08/18 10:00:45;;;;;;;2.87;1.53;;;24.10;99.90;;;;;;5052588;28;20457;-77
2022/08/18 10:03:22;;;;;;;4.33;2.10;;;24.00;99.90;;;;;;5052347;28;20445;-78
2022/08/18 10:06:17;;;;;;;0.50;0.50;;;24.30;99.90;;;;;;5052332;28;20484;-77
2022/08/18 10:09:15;;;;;;;0.50;0.30;;;24.70;99.90;;;;;;5051853;28;20456;-78
2022/08/18 10:12:02;;;;;;;1.50;1.40;;;25.20;99.90;;;;;;5051892;28;20427;-78
2022/08/18 10:14:50;;;;;;;2.97;2.70;;;25.50;99.90;;;;;;5051683;28;20529;-78
2022/08/18 10:17:33;;;;;;;0.90;0.90;;;25.60;99.90;;;;;;5051984;28;20441;-77
2022/08/18 10:20:20;;;;;;;3.80;1.53;;;25.60;99.90;;;;;;5052546;28;20461;-78
2022/08/18 10:22:49;;;;;;;2.50;2.20;;;25.70;99.90;;;;;;5052230;28;20517;-77
2022/08/18 10:25:33;;;;;;;0.63;0.63;;;25.80;99.90;;;;;;5051654;28;20447;-77
2022/08/18 10:28:04;;;;;;;20.33;2.57;;;25.50;99.90;;;;;;5052176;28;20437;-78
2022/08/18 10:31:12;;;;;;;0.90;0.90;;;25.30;99.90;;;;;;5052779;28;20469;-77
2022/08/18 10:34:04;;;;;;;0.60;0.60;;;25.20;99.90;;;;;;5051649;28;20425;-77
2022/08/18 10:36:44;;;;;;;1.27;1.17;;;25.20;99.90;;;;;;5052168;28;20427;-77
2022/08/18 10:39:15;;;;;;;1.20;1.20;;;25.00;99.90;;;;;;5051556;28;20456;-78
2022/08/18 10:42:01;;;;;;;0.50;0.40;;;25.00;99.90;;;;;;5051436;28;20437;-78
2022/08/18 10:44:32;;;;;;;0.50;0.30;;;25.20;99.90;;;;;;5051241;28;20422;-77
2022/08/18 10:47:00;;;;;;;0.50;0.33;;;25.20;99.90;;;;;;5052122;28;20568;-78
2022/08/18 10:49:31;;;;;;;0.90;0.90;;;25.40;99.90;;;;;;5051620;28;20868;-78
2022/08/18 10:52:28;;;;;;;6.43;5.73;;;25.60;99.90;;;;;;5051349;28;20480;-78
2022/08/18 10:55:07;;;;;;;1.17;1.17;;;25.50;99.90;;;;;;5051282;28;20456;-75
2022/08/18 10:57:48;;;;;;;5.40;3.63;;;25.40;99.90;;;;;;5051564;28;20410;-75
2022/08/18 11:00:19;;;;;;;0.60;0.53;;;25.30;99.90;;;;;;5051418;28;20810;-76
2022/08/18 11:03:05;;;;;;;4.77;2.00;;;25.30;99.90;;;;;;5051423;28;20429;-78
2022/08/18 11:05:32;;;;;;;2.40;2.30;;;25.20;99.90;;;;;;5051058;28;20486;-79
2022/08/18 11:08:01;;;;;;;1.00;1.00;;;25.00;99.90;;;;;;5051551;28;20441;-78
2022/08/18 11:10:39;;;;;;;0.60;0.53;;;24.90;99.90;;;;;;5050616;28;20461;-77
2022/08/18 11:13:15;;;;;;;0.93;0.93;;;24.90;99.90;;;;;;5051992;28;20501;-77
2022/08/18 11:15:53;;;;;;;0.50;0.40;;;24.90;99.90;;;;;;5051076;28;20448;-77
2022/08/18 11:18:32;;;;;;;0.50;0.40;;;24.90;99.90;;;;;;5052076;28;21009;-77
2022/08/18 11:21:25;;;;;;;0.50;0.50;;;24.70;99.90;;;;;;5050996;28;20969;-77
2022/08/18 11:24:10;;;;;;;0.50;0.30;;;24.50;99.90;;;;;;5050944;28;20437;-77
2022/08/18 11:26:41;;;;;;;0.70;0.70;;;24.40;99.90;;;;;;5050584;28;20537;-78
2022/08/18 11:29:25;;;;;;;0.50;0.40;;;24.40;99.90;;;;;;5050551;28;20568;-77
2022/08/18 11:31:56;;;;;;;0.50;0.30;;;24.20;99.90;;;;;;5050513;28;20524;-76
2022/08/18 11:34:30;;;;;;;0.50;0.40;;;24.20;99.90;;;;;;5050814;28;21339;-78
2022/08/18 11:36:59;;;;;;;0.50;0.30;;;24.30;99.90;;;;;;5050521;28;20902;-78
2022/08/18 11:39:27;;;;;;;0.50;0.40;;;24.40;99.90;;;;;;5050243;28;20457;-78
2022/08/18 11:41:56;;;;;;;0.50;0.30;;;24.40;99.90;;;;;;5050777;28;20456;-77
2022/08/18 11:44:30;;;;;;;0.50;0.40;;;24.60;99.90;;;;;;5050872;28;20469;-76
2022/08/18 11:47:10;;;;;;;0.50;0.30;;;24.80;99.90;;;;;;5050616;28;20554;-76
2022/08/18 11:49:44;;;;;;;0.50;0.40;;;24.80;99.90;;;;;;5050760;28;20461;-78
2022/08/18 11:52:19;;;;;;;0.50;0.50;;;25.00;99.90;;;;;;5050700;28;20429;-78
2022/08/18 11:54:50;;;;;;;0.50;0.30;;;25.30;99.90;;;;;;5050276;28;20423;-77
2022/08/18 11:57:42;;;;;;;0.50;0.33;;;25.40;99.90;;;;;;5050629;28;20949;-78
2022/08/18 12:00:42;;;;;;;0.50;0.30;;;25.50;99.90;;;;;;5050924;28;20471;-77
2022/08/18 12:03:17;;;;;;;1.27;1.17;;;25.60;99.90;;;;;;5050544;28;20455;-78
2022/08/18 12:05:51;;;;;;;0.50;0.30;;;26.00;99.90;;;;;;5050551;28;20425;-75
2022/08/18 12:08:25;;;;;;;0.80;0.63;;;25.90;99.90;;;;;;5050711;28;20421;-76
2022/08/18 12:11:03;;;;;;;0.60;0.30;;;26.20;99.90;;;;;;5050893;28;20486;-77
2022/08/18 12:13:32;;;;;;;0.50;0.30;;;26.40;99.90;;;;;;5050556;28;20435;-78
2022/08/18 12:16:14;;;;;;;0.50;0.30;;;26.70;99.90;;;;;;5049978;28;20455;-77
2022/08/18 12:18:41;;;;;;;1.10;0.97;;;27.00;99.90;;;;;;5050559;28;20938;-78
2022/08/18 12:21:09;;;;;;;0.50;0.30;;;27.20;99.90;;;;;;5050187;28;20966;-77
2022/08/18 12:23:40;;;;;;;2.20;2.10;;;26.80;99.90;;;;;;5050317;28;20451;-78
2022/08/18 12:26:07;;;;;;;0.50;0.30;;;26.90;99.90;;;;;;5050245;28;20444;-79
2022/08/18 12:28:36;;;;;;;0.50;0.30;;;27.20;99.90;;;;;;5050555;28;20826;-75
2022/08/18 12:31:02;;;;;;;0.50;0.30;;;27.50;99.90;;;;;;5050544;28;20441;-78
2022/08/18 12:33:29;;;;;;;2.50;2.40;;;27.40;99.90;;;;;;5050281;28;21196;-78
2022/08/18 12:35:57;;;;;;;0.50;0.30;;;27.60;99.90;;;;;;5054150;28;20499;-78
2022/08/18 12:38:23;;;;;;;0.50;0.30;;;27.90;99.90;;;;;;5053886;28;20931;-78
2022/08/18 12:40:50;;;;;;;0.50;0.30;;;28.10;99.90;;;;;;5053848;28;20838;-78
2022/08/18 12:43:17;;;;;;;0.50;0.30;;;28.20;99.90;;;;;;5054000;28;20528;-78
2022/08/18 12:45:46;;;;;;;0.50;0.30;;;28.10;99.90;;;;;;5053695;28;20464;-74
2022/08/18 12:48:13;;;;;;;0.50;0.30;;;27.70;99.90;;;;;;5053973;28;20472;-78
2022/08/18 12:50:40;;;;;;;1.73;1.63;;;27.70;99.90;;;;;;5053625;28;20513;-78
2022/08/18 12:53:07;;;;;;;0.50;0.30;;;27.70;99.90;;;;;;5053891;28;20445;-78
2022/08/18 12:55:36;;;;;;;0.70;0.67;;;27.50;99.90;;;;;;5053512;28;20441;-78
2022/08/18 12:58:04;;;;;;;0.50;0.40;;;27.50;99.90;;;;;;5053407;28;20445;-78
2022/08/18 13:00:31;;;;;;;0.50;0.40;;;27.30;99.90;;;;;;5053926;28;20504;-78
2022/08/18 13:02:59;;;;;;;0.77;0.47;;;27.30;99.90;;;;;;5054019;28;20791;-78
2022/08/18 13:05:27;;;;;;;0.50;0.30;;;27.10;99.90;;;;;;5054022;28;20437;-76
2022/08/18 13:07:54;;;;;;;0.50;0.30;;;27.00;99.90;;;;;;5053696;28;20504;-78
2022/08/18 13:10:21;;;;;;;0.50;0.30;;;27.00;99.90;;;;;;5052923;28;20468;-77
2022/08/18 13:12:48;;;;;;;0.77;0.60;;;27.10;99.90;;;;;;5053089;28;20472;-78
2022/08/18 13:15:15;;;;;;;0.50;0.30;;;27.30;99.90;;;;;;5053361;28;20529;-78
2022/08/18 13:17:42;;;;;;;1.03;0.90;;;27.50;99.90;;;;;;5053873;28;20463;-77
2022/08/18 13:20:12;;;;;;;0.50;0.30;;;27.70;99.90;;;;;;5052846;28;20458;-77
2022/08/18 13:22:40;;;;;;;0.50;0.40;;;27.80;99.90;;;;;;5053949;28;20463;-77
2022/08/18 13:25:09;;;;;;;0.50;0.30;;;27.60;99.90;;;;;;5052944;28;20444;-77
2022/08/18 13:27:37;;;;;;;0.50;0.30;;;26.70;99.90;;;;;;5053458;28;20469;-76
2022/08/18 13:30:06;;;;;;;0.77;0.73;;;27.00;99.90;;;;;;5053345;28;20842;-76